sensor_id;sensor_type;location;lat;lon;timestamp;temperature;humidity
23323;DHT22;11833;52.554;13.554;2024-03-02T00:00:19;8.50;99.90
23323;DHT22;11833;52.554;13.554;2024-03-02T00:02:47;8.50;99.90
23323;DHT22;11833;52.554;13.554;2024-03-02T00:05:18;8.50;99.90
23323;DHT22;11833;52.554;13.554;2024-03-02T00:07:52;8.50;99.90
23323;DHT22;11833;52.554;13.554;2024-03-02T00:10:25;8.50;99.90
23323;DHT22;11833;52.554;13.554;2024-03-02T00:13:00;8.60;99.90
23323;DHT22;11833;52.554;13.554;2024-03-02T00:15:48;8.50;99.90
23323;DHT22;11833;52.554;13.554;2024-03-02T00:18:31;8.60;99.90
23323;DHT22;11833;52.554;13.554;2024-03-02T00:20:58;8.60;99.90
23323;DHT22;11833;52.554;13.554;2024-03-02T00:23:27;8.60;99.90
23323;DHT22;11833;52.554;13.554;2024-03-02T00:25:54;8.70;99.90
23323;DHT22;11833;52.554;13.554;2024-03-02T00:28:23;8.60;99.90
23323;DHT22;11833;52.554;13.554;2024-03-02T00:33:27;8.60;99.90
23323;DHT22;11833;52.554;13.554;2024-03-02T00:35:54;8.60;99.90
23323;DHT22;11833;52.554;13.554;2024-03-02T00:38:20;8.60;99.90
23323;DHT22;11833;52.554;13.554;2024-03-02T00:40:46;8.60;99.90
23323;DHT22;11833;52.554;13.554;2024-03-02T00:46:20;8.60;99.90
23323;DHT22;11833;52.554;13.554;2024-03-02T00:49:03;8.60;99.90
23323;DHT22;11833;52.554;13.554;2024-03-02T00:51:31;8.60;99.90
23323;DHT22;11833;52.554;13.554;2024-03-02T00:54:00;8.70;99.90
23323;DHT22;11833;52.554;13.554;2024-03-02T00:56:29;8.70;99.90
23323;DHT22;11833;52.554;13.554;2024-03-02T00:58:56;8.70;99.90
23323;DHT22;11833;52.554;13.554;2024-03-02T01:01:23;8.70;99.90
23323;DHT22;11833;52.554;13.554;2024-03-02T01:03:49;8.70;99.90
23323;DHT22;11833;52.554;13.554;2024-03-02T01:06:16;8.80;99.90
23323;DHT22;11833;52.554;13.554;2024-03-02T01:08:42;8.70;99.90
23323;DHT22;11833;52.554;13.554;2024-03-02T01:11:08;8.80;99.90
23323;DHT22;11833;52.554;13.554;2024-03-02T01:13:34;8.80;99.90
23323;DHT22;11833;52.554;13.554;2024-03-02T01:16:00;8.80;99.90
23323;DHT22;11833;52.554;13.554;2024-03-02T01:18:26;8.80;99.90
23323;DHT22;11833;52.554;13.554;2024-03-02T01:20:52;8.80;99.90
23323;DHT22;11833;52.554;13.554;2024-03-02T01:23:21;8.80;99.90
23323;DHT22;11833;52.554;13.554;2024-03-02T01:25:47;8.80;99.90
23323;DHT22;11833;52.554;13.554;2024-03-02T01:28:14;8.80;99.90
23323;DHT22;11833;52.554;13.554;2024-03-02T01:30:40;8.80;99.90
23323;DHT22;11833;52.554;13.554;2024-03-02T01:33:06;8.80;99.90
23323;DHT22;11833;52.554;13.554;2024-03-02T01:35:32;8.80;99.90
23323;DHT22;11833;52.554;13.554;2024-03-02T01:37:58;8.80;99.90
23323;DHT22;11833;52.554;13.554;2024-03-02T01:40:24;8.80;99.90
23323;DHT22;11833;52.554;13.554;2024-03-02T01:42:54;8.80;99.90
23323;DHT22;11833;52.554;13.554;2024-03-02T01:45:20;8.80;99.90
23323;DHT22;11833;52.554;13.554;2024-03-02T01:47:47;8.80;99.90
23323;DHT22;11833;52.554;13.554;2024-03-02T01:50:13;8.80;99.90
23323;DHT22;11833;52.554;13.554;2024-03-02T01:52:40;8.80;99.90
23323;DHT22;11833;52.554;13.554;2024-03-02T01:55:06;8.80;99.90
23323;DHT22;11833;52.554;13.554;2024-03-02T01:57:33;8.80;99.90
23323;DHT22;11833;52.554;13.554;2024-03-02T02:00:00;8.80;99.90
23323;DHT22;11833;52.554;13.554;2024-03-02T02:02:26;8.80;99.90
23323;DHT22;11833;52.554;13.554;2024-03-02T02:04:52;8.80;99.90
23323;DHT22;11833;52.554;13.554;2024-03-02T02:07:18;8.80;99.90
23323;DHT22;11833;52.554;13.554;2024-03-02T02:09:43;8.80;99.90
23323;DHT22;11833;52.554;13.554;2024-03-02T02:12:10;8.80;99.90
23323;DHT22;11833;52.554;13.554;2024-03-02T02:14:36;8.80;99.90
23323;DHT22;11833;52.554;13.554;2024-03-02T02:17:02;8.80;99.90
23323;DHT22;11833;52.554;13.554;2024-03-02T02:19:28;8.80;99.90
23323;DHT22;11833;52.554;13.554;2024-03-02T02:21:54;8.80;99.90
23323;DHT22;11833;52.554;13.554;2024-03-02T02:24:20;8.80;99.90
23323;DHT22;11833;52.554;13.554;2024-03-02T02:26:46;8.80;99.90
23323;DHT22;11833;52.554;13.554;2024-03-02T02:29:12;8.80;99.90
23323;DHT22;11833;52.554;13.554;2024-03-02T02:31:41;8.80;99.90
23323;DHT22;11833;52.554;13.554;2024-03-02T02:34:07;8.80;99.90
23323;DHT22;11833;52.554;13.554;2024-03-02T02:36:37;8.80;99.90
23323;DHT22;11833;52.554;13.554;2024-03-02T02:39:05;8.80;99.90
23323;DHT22;11833;52.554;13.554;2024-03-02T02:41:33;8.90;99.90
23323;DHT22;11833;52.554;13.554;2024-03-02T02:43:59;8.90;99.90
23323;DHT22;11833;52.554;13.554;2024-03-02T02:46:24;8.90;99.90
23323;DHT22;11833;52.554;13.554;2024-03-02T02:48:50;8.90;99.90
23323;DHT22;11833;52.554;13.554;2024-03-02T02:51:18;8.90;99.90
23323;DHT22;11833;52.554;13.554;2024-03-02T02:53:44;8.90;99.90
23323;DHT22;11833;52.554;13.554;2024-03-02T02:56:10;8.90;99.90
23323;DHT22;11833;52.554;13.554;2024-03-02T02:58:36;8.80;99.90
23323;DHT22;11833;52.554;13.554;2024-03-02T03:01:02;8.90;99.90
23323;DHT22;11833;52.554;13.554;2024-03-02T03:03:27;8.90;99.90
23323;DHT22;11833;52.554;13.554;2024-03-02T03:05:53;8.90;99.90
23323;DHT22;11833;52.554;13.554;2024-03-02T03:08:19;8.90;99.90
23323;DHT22;11833;52.554;13.554;2024-03-02T03:10:44;8.90;99.90
23323;DHT22;11833;52.554;13.554;2024-03-02T03:13:10;8.90;99.90
23323;DHT22;11833;52.554;13.554;2024-03-02T03:15:36;8.80;99.90
23323;DHT22;11833;52.554;13.554;2024-03-02T03:18:05;8.80;99.90
23323;DHT22;11833;52.554;13.554;2024-03-02T03:20:32;8.90;99.90
23323;DHT22;11833;52.554;13.554;2024-03-02T03:22:59;8.90;99.90
23323;DHT22;11833;52.554;13.554;2024-03-02T03:25:25;8.90;99.90
23323;DHT22;11833;52.554;13.554;2024-03-02T03:27:51;8.90;99.90
23323;DHT22;11833;52.554;13.554;2024-03-02T03:30:19;8.90;99.90
23323;DHT22;11833;52.554;13.554;2024-03-02T03:32:45;8.80;99.90
23323;DHT22;11833;52.554;13.554;2024-03-02T03:35:11;8.90;99.90
23323;DHT22;11833;52.554;13.554;2024-03-02T03:37:38;8.90;99.90
23323;DHT22;11833;52.554;13.554;2024-03-02T03:40:04;8.90;99.90
23323;DHT22;11833;52.554;13.554;2024-03-02T03:42:35;8.90;99.90
23323;DHT22;11833;52.554;13.554;2024-03-02T03:45:03;8.90;99.90
23323;DHT22;11833;52.554;13.554;2024-03-02T03:47:29;8.90;99.90
23323;DHT22;11833;52.554;13.554;2024-03-02T03:49:56;8.90;99.90
23323;DHT22;11833;52.554;13.554;2024-03-02T03:52:22;8.90;99.90
23323;DHT22;11833;52.554;13.554;2024-03-02T03:54:48;8.90;99.90
23323;DHT22;11833;52.554;13.554;2024-03-02T03:57:13;8.90;99.90
23323;DHT22;11833;52.554;13.554;2024-03-02T03:59:39;8.90;99.90
23323;DHT22;11833;52.554;13.554;2024-03-02T04:02:05;9.00;99.90
23323;DHT22;11833;52.554;13.554;2024-03-02T04:04:30;8.90;99.90
23323;DHT22;11833;52.554;13.554;2024-03-02T04:06:56;8.90;99.90
23323;DHT22;11833;52.554;13.554;2024-03-02T04:09:22;9.00;99.90
23323;DHT22;11833;52.554;13.554;2024-03-02T04:11:48;9.00;99.90
23323;DHT22;11833;52.554;13.554;2024-03-02T04:14:13;9.00;99.90
23323;DHT22;11833;52.554;13.554;2024-03-02T04:16:39;9.00;99.90
23323;DHT22;11833;52.554;13.554;2024-03-02T04:19:05;8.90;99.90
23323;DHT22;11833;52.554;13.554;2024-03-02T04:21:31;9.00;99.90
23323;DHT22;11833;52.554;13.554;2024-03-02T04:23:57;9.00;99.90
23323;DHT22;11833;52.554;13.554;2024-03-02T04:26:25;8.90;99.90
23323;DHT22;11833;52.554;13.554;2024-03-02T04:28:51;8.90;99.90
23323;DHT22;11833;52.554;13.554;2024-03-02T04:31:18;8.90;99.90
23323;DHT22;11833;52.554;13.554;2024-03-02T04:33:44;9.00;99.90
23323;DHT22;11833;52.554;13.554;2024-03-02T04:36:09;8.90;99.90
23323;DHT22;11833;52.554;13.554;2024-03-02T04:38:36;8.90;99.90
23323;DHT22;11833;52.554;13.554;2024-03-02T04:41:03;8.90;99.90
23323;DHT22;11833;52.554;13.554;2024-03-02T04:43:29;8.90;99.90
23323;DHT22;11833;52.554;13.554;2024-03-02T04:45:55;9.00;99.90
23323;DHT22;11833;52.554;13.554;2024-03-02T04:48:20;8.90;99.90
23323;DHT22;11833;52.554;13.554;2024-03-02T04:50:47;8.90;99.90
23323;DHT22;11833;52.554;13.554;2024-03-02T04:53:13;8.90;99.90
23323;DHT22;11833;52.554;13.554;2024-03-02T04:55:39;8.90;99.90
23323;DHT22;11833;52.554;13.554;2024-03-02T04:58:04;8.90;99.90
23323;DHT22;11833;52.554;13.554;2024-03-02T05:00:30;8.90;99.90
23323;DHT22;11833;52.554;13.554;2024-03-02T05:02:56;8.90;99.90
23323;DHT22;11833;52.554;13.554;2024-03-02T05:05:22;8.90;99.90
23323;DHT22;11833;52.554;13.554;2024-03-02T05:07:48;8.90;99.90
23323;DHT22;11833;52.554;13.554;2024-03-02T05:10:13;8.90;99.90
23323;DHT22;11833;52.554;13.554;2024-03-02T05:12:39;9.00;99.90
23323;DHT22;11833;52.554;13.554;2024-03-02T05:15:09;9.00;99.90
23323;DHT22;11833;52.554;13.554;2024-03-02T05:17:42;9.00;99.90
23323;DHT22;11833;52.554;13.554;2024-03-02T05:20:11;9.00;99.90
23323;DHT22;11833;52.554;13.554;2024-03-02T05:22:37;9.00;99.90
23323;DHT22;11833;52.554;13.554;2024-03-02T05:25:04;9.00;99.90
23323;DHT22;11833;52.554;13.554;2024-03-02T05:27:31;9.00;99.90
23323;DHT22;11833;52.554;13.554;2024-03-02T05:29:58;9.10;99.90
23323;DHT22;11833;52.554;13.554;2024-03-02T05:32:24;9.20;99.90
23323;DHT22;11833;52.554;13.554;2024-03-02T05:34:50;9.30;99.90
23323;DHT22;11833;52.554;13.554;2024-03-02T05:37:16;9.40;99.90
23323;DHT22;11833;52.554;13.554;2024-03-02T05:39:42;9.40;99.90
23323;DHT22;11833;52.554;13.554;2024-03-02T05:42:10;9.40;99.90
23323;DHT22;11833;52.554;13.554;2024-03-02T05:44:36;9.50;99.90
23323;DHT22;11833;52.554;13.554;2024-03-02T05:47:03;9.40;99.90
23323;DHT22;11833;52.554;13.554;2024-03-02T05:49:29;9.50;99.90
23323;DHT22;11833;52.554;13.554;2024-03-02T05:51:55;9.50;99.90
23323;DHT22;11833;52.554;13.554;2024-03-02T05:54:21;9.50;99.90
23323;DHT22;11833;52.554;13.554;2024-03-02T05:56:47;9.30;99.90
23323;DHT22;11833;52.554;13.554;2024-03-02T05:59:12;9.40;99.90
23323;DHT22;11833;52.554;13.554;2024-03-02T06:01:48;9.30;99.90
23323;DHT22;11833;52.554;13.554;2024-03-02T06:04:16;9.10;99.90
23323;DHT22;11833;52.554;13.554;2024-03-02T06:06:42;9.00;99.90
23323;DHT22;11833;52.554;13.554;2024-03-02T06:09:08;9.10;99.90
23323;DHT22;11833;52.554;13.554;2024-03-02T06:11:38;9.00;99.90
23323;DHT22;11833;52.554;13.554;2024-03-02T06:14:05;9.00;99.90
23323;DHT22;11833;52.554;13.554;2024-03-02T06:16:32;9.10;99.90
23323;DHT22;11833;52.554;13.554;2024-03-02T06:18:58;8.90;99.90
23323;DHT22;11833;52.554;13.554;2024-03-02T06:21:24;8.90;99.90
23323;DHT22;11833;52.554;13.554;2024-03-02T06:23:50;8.90;99.90
23323;DHT22;11833;52.554;13.554;2024-03-02T06:26:16;9.10;99.90
23323;DHT22;11833;52.554;13.554;2024-03-02T06:28:42;9.00;99.90
23323;DHT22;11833;52.554;13.554;2024-03-02T06:31:08;8.90;99.90
23323;DHT22;11833;52.554;13.554;2024-03-02T06:33:34;8.90;99.90
23323;DHT22;11833;52.554;13.554;2024-03-02T06:36:00;8.80;99.90
23323;DHT22;11833;52.554;13.554;2024-03-02T06:38:26;9.10;99.90
23323;DHT22;11833;52.554;13.554;2024-03-02T06:40:52;9.20;99.90
23323;DHT22;11833;52.554;13.554;2024-03-02T06:43:17;9.20;99.90
23323;DHT22;11833;52.554;13.554;2024-03-02T06:45:43;9.10;99.90
23323;DHT22;11833;52.554;13.554;2024-03-02T06:48:11;9.10;99.90
23323;DHT22;11833;52.554;13.554;2024-03-02T06:50:36;9.10;99.90
23323;DHT22;11833;52.554;13.554;2024-03-02T06:53:02;9.10;99.90
23323;DHT22;11833;52.554;13.554;2024-03-02T06:55:29;9.10;99.90
23323;DHT22;11833;52.554;13.554;2024-03-02T06:57:55;9.10;99.90
23323;DHT22;11833;52.554;13.554;2024-03-02T07:00:21;9.20;99.90
23323;DHT22;11833;52.554;13.554;2024-03-02T07:02:46;9.10;99.90
23323;DHT22;11833;52.554;13.554;2024-03-02T07:05:12;9.20;99.90
23323;DHT22;11833;52.554;13.554;2024-03-02T07:07:38;9.20;99.90
23323;DHT22;11833;52.554;13.554;2024-03-02T07:10:05;9.10;99.90
23323;DHT22;11833;52.554;13.554;2024-03-02T07:12:33;9.20;99.90
23323;DHT22;11833;52.554;13.554;2024-03-02T07:14:59;9.40;99.90
23323;DHT22;11833;52.554;13.554;2024-03-02T07:17:31;9.40;99.90
23323;DHT22;11833;52.554;13.554;2024-03-02T07:19:57;9.40;99.90
23323;DHT22;11833;52.554;13.554;2024-03-02T07:22:23;9.40;99.90
23323;DHT22;11833;52.554;13.554;2024-03-02T07:24:49;9.40;99.90
23323;DHT22;11833;52.554;13.554;2024-03-02T07:27:16;9.30;99.90
23323;DHT22;11833;52.554;13.554;2024-03-02T07:29:43;9.30;99.90
23323;DHT22;11833;52.554;13.554;2024-03-02T07:32:10;9.30;99.90
23323;DHT22;11833;52.554;13.554;2024-03-02T07:34:36;9.30;99.90
23323;DHT22;11833;52.554;13.554;2024-03-02T07:37:03;9.40;99.90
23323;DHT22;11833;52.554;13.554;2024-03-02T07:39:29;9.20;99.90
23323;DHT22;11833;52.554;13.554;2024-03-02T07:41:55;9.30;99.90
23323;DHT22;11833;52.554;13.554;2024-03-02T07:44:22;9.30;99.90
23323;DHT22;11833;52.554;13.554;2024-03-02T07:46:48;9.30;99.90
23323;DHT22;11833;52.554;13.554;2024-03-02T07:49:18;9.30;99.90
23323;DHT22;11833;52.554;13.554;2024-03-02T07:51:44;9.40;99.90
23323;DHT22;11833;52.554;13.554;2024-03-02T07:54:10;9.40;99.90
23323;DHT22;11833;52.554;13.554;2024-03-02T07:56:36;9.50;99.90
23323;DHT22;11833;52.554;13.554;2024-03-02T07:59:02;9.50;99.90
23323;DHT22;11833;52.554;13.554;2024-03-02T08:01:29;9.50;99.90
23323;DHT22;11833;52.554;13.554;2024-03-02T08:03:57;9.50;99.90
23323;DHT22;11833;52.554;13.554;2024-03-02T08:06:24;9.40;99.90
23323;DHT22;11833;52.554;13.554;2024-03-02T08:08:53;9.30;99.90
23323;DHT22;11833;52.554;13.554;2024-03-02T08:11:20;9.30;99.90
23323;DHT22;11833;52.554;13.554;2024-03-02T08:13:47;9.30;99.90
23323;DHT22;11833;52.554;13.554;2024-03-02T08:16:13;9.30;99.90
23323;DHT22;11833;52.554;13.554;2024-03-02T08:18:44;9.30;99.90
23323;DHT22;11833;52.554;13.554;2024-03-02T08:21:10;9.40;99.90
23323;DHT22;11833;52.554;13.554;2024-03-02T08:23:35;9.40;99.90
23323;DHT22;11833;52.554;13.554;2024-03-02T08:26:01;9.40;99.90
23323;DHT22;11833;52.554;13.554;2024-03-02T08:28:27;9.50;99.90
23323;DHT22;11833;52.554;13.554;2024-03-02T08:30:53;9.60;99.90
23323;DHT22;11833;52.554;13.554;2024-03-02T08:33:20;9.70;99.90
23323;DHT22;11833;52.554;13.554;2024-03-02T08:35:45;9.80;99.90
23323;DHT22;11833;52.554;13.554;2024-03-02T08:38:12;9.90;99.90
23323;DHT22;11833;52.554;13.554;2024-03-02T08:40:38;9.90;99.90
23323;DHT22;11833;52.554;13.554;2024-03-02T08:43:03;9.80;99.90
23323;DHT22;11833;52.554;13.554;2024-03-02T08:45:29;9.80;99.90
23323;DHT22;11833;52.554;13.554;2024-03-02T08:47:55;9.80;99.90
23323;DHT22;11833;52.554;13.554;2024-03-02T08:50:21;9.90;99.90
23323;DHT22;11833;52.554;13.554;2024-03-02T08:52:47;9.80;99.90
23323;DHT22;11833;52.554;13.554;2024-03-02T08:55:12;9.90;99.90
23323;DHT22;11833;52.554;13.554;2024-03-02T08:57:38;10.00;99.90
23323;DHT22;11833;52.554;13.554;2024-03-02T09:00:05;9.90;99.90
23323;DHT22;11833;52.554;13.554;2024-03-02T09:02:32;10.00;99.90
23323;DHT22;11833;52.554;13.554;2024-03-02T09:04:58;9.90;99.90
23323;DHT22;11833;52.554;13.554;2024-03-02T09:07:24;9.90;99.90
23323;DHT22;11833;52.554;13.554;2024-03-02T09:09:50;9.80;99.90
23323;DHT22;11833;52.554;13.554;2024-03-02T09:12:15;9.90;99.90
23323;DHT22;11833;52.554;13.554;2024-03-02T09:14:41;9.90;99.90
23323;DHT22;11833;52.554;13.554;2024-03-02T09:17:07;9.90;99.90
23323;DHT22;11833;52.554;13.554;2024-03-02T09:19:36;10.20;99.90
23323;DHT22;11833;52.554;13.554;2024-03-02T09:22:01;10.10;99.90
23323;DHT22;11833;52.554;13.554;2024-03-02T09:24:28;10.20;99.90
23323;DHT22;11833;52.554;13.554;2024-03-02T09:26:54;10.30;99.90
23323;DHT22;11833;52.554;13.554;2024-03-02T09:29:20;10.30;99.90
23323;DHT22;11833;52.554;13.554;2024-03-02T09:31:46;10.30;99.90
23323;DHT22;11833;52.554;13.554;2024-03-02T09:34:12;10.40;99.90
23323;DHT22;11833;52.554;13.554;2024-03-02T09:36:39;10.30;99.90
23323;DHT22;11833;52.554;13.554;2024-03-02T09:39:10;10.50;99.90
23323;DHT22;11833;52.554;13.554;2024-03-02T09:41:39;10.60;99.90
23323;DHT22;11833;52.554;13.554;2024-03-02T09:44:05;10.60;99.90
23323;DHT22;11833;52.554;13.554;2024-03-02T09:46:31;10.70;99.90
23323;DHT22;11833;52.554;13.554;2024-03-02T09:48:59;10.90;99.90
23323;DHT22;11833;52.554;13.554;2024-03-02T09:51:25;11.00;99.90
23323;DHT22;11833;52.554;13.554;2024-03-02T09:53:51;11.00;99.90
23323;DHT22;11833;52.554;13.554;2024-03-02T09:56:18;11.40;99.90
23323;DHT22;11833;52.554;13.554;2024-03-02T09:58:44;11.40;99.90
23323;DHT22;11833;52.554;13.554;2024-03-02T10:01:10;11.30;99.90
23323;DHT22;11833;52.554;13.554;2024-03-02T10:03:37;11.50;99.90
23323;DHT22;11833;52.554;13.554;2024-03-02T10:06:21;11.80;99.90
23323;DHT22;11833;52.554;13.554;2024-03-02T10:08:50;11.90;99.90
23323;DHT22;11833;52.554;13.554;2024-03-02T10:11:36;12.00;99.90
23323;DHT22;11833;52.554;13.554;2024-03-02T10:14:10;11.90;99.90
23323;DHT22;11833;52.554;13.554;2024-03-02T10:16:37;11.80;99.90
23323;DHT22;11833;52.554;13.554;2024-03-02T10:19:23;12.00;99.90
23323;DHT22;11833;52.554;13.554;2024-03-02T10:21:50;12.00;99.90
23323;DHT22;11833;52.554;13.554;2024-03-02T10:24:20;12.10;99.90
23323;DHT22;11833;52.554;13.554;2024-03-02T10:26:48;12.00;99.90
23323;DHT22;11833;52.554;13.554;2024-03-02T10:29:14;12.10;99.90
23323;DHT22;11833;52.554;13.554;2024-03-02T10:31:45;12.20;99.90
23323;DHT22;11833;52.554;13.554;2024-03-02T10:34:12;12.10;99.90
23323;DHT22;11833;52.554;13.554;2024-03-02T10:36:41;12.00;99.90
23323;DHT22;11833;52.554;13.554;2024-03-02T10:39:08;12.00;99.90
23323;DHT22;11833;52.554;13.554;2024-03-02T10:41:36;12.10;99.90
23323;DHT22;11833;52.554;13.554;2024-03-02T10:44:07;12.20;99.90
23323;DHT22;11833;52.554;13.554;2024-03-02T10:46:35;12.40;99.90
23323;DHT22;11833;52.554;13.554;2024-03-02T10:49:03;12.50;99.90
23323;DHT22;11833;52.554;13.554;2024-03-02T10:51:31;12.60;99.90
23323;DHT22;11833;52.554;13.554;2024-03-02T10:53:59;12.70;99.90
23323;DHT22;11833;52.554;13.554;2024-03-02T10:56:39;12.70;99.90
23323;DHT22;11833;52.554;13.554;2024-03-02T11:02:01;12.80;99.90
23323;DHT22;11833;52.554;13.554;2024-03-02T11:04:30;13.00;99.90
23323;DHT22;11833;52.554;13.554;2024-03-02T11:07:07;13.00;99.90
23323;DHT22;11833;52.554;13.554;2024-03-02T11:09:38;13.00;99.90
23323;DHT22;11833;52.554;13.554;2024-03-02T11:12:28;12.90;99.90
23323;DHT22;11833;52.554;13.554;2024-03-02T11:14:55;13.10;99.90
23323;DHT22;11833;52.554;13.554;2024-03-02T11:17:22;13.30;99.90
23323;DHT22;11833;52.554;13.554;2024-03-02T11:19:49;13.30;99.90
23323;DHT22;11833;52.554;13.554;2024-03-02T11:22:15;13.30;99.90
23323;DHT22;11833;52.554;13.554;2024-03-02T11:24:48;13.40;99.90
23323;DHT22;11833;52.554;13.554;2024-03-02T11:32:58;13.90;99.90
23323;DHT22;11833;52.554;13.554;2024-03-02T11:35:27;13.90;99.90
23323;DHT22;11833;52.554;13.554;2024-03-02T11:37:54;13.80;99.90
23323;DHT22;11833;52.554;13.554;2024-03-02T11:40:26;14.20;99.90
23323;DHT22;11833;52.554;13.554;2024-03-02T11:42:53;14.10;99.90
23323;DHT22;11833;52.554;13.554;2024-03-02T11:45:25;14.00;99.90
23323;DHT22;11833;52.554;13.554;2024-03-02T11:47:54;14.30;99.70
23323;DHT22;11833;52.554;13.554;2024-03-02T11:50:33;14.50;99.80
23323;DHT22;11833;52.554;13.554;2024-03-02T11:53:07;14.60;99.90
23323;DHT22;11833;52.554;13.554;2024-03-02T11:55:38;14.70;99.90
23323;DHT22;11833;52.554;13.554;2024-03-02T11:58:05;14.80;98.10
23323;DHT22;11833;52.554;13.554;2024-03-02T12:00:31;14.90;98.00
23323;DHT22;11833;52.554;13.554;2024-03-02T12:03:05;15.00;95.80
23323;DHT22;11833;52.554;13.554;2024-03-02T12:05:32;15.10;97.00
23323;DHT22;11833;52.554;13.554;2024-03-02T12:08:00;14.90;94.90
23323;DHT22;11833;52.554;13.554;2024-03-02T12:10:28;14.50;94.90
23323;DHT22;11833;52.554;13.554;2024-03-02T12:13:02;14.80;99.90
23323;DHT22;11833;52.554;13.554;2024-03-02T12:15:30;14.90;96.90
23323;DHT22;11833;52.554;13.554;2024-03-02T12:17:58;15.20;95.40
23323;DHT22;11833;52.554;13.554;2024-03-02T12:20:27;15.40;97.00
23323;DHT22;11833;52.554;13.554;2024-03-02T12:22:55;15.10;94.30
23323;DHT22;11833;52.554;13.554;2024-03-02T12:25:24;15.20;96.40
23323;DHT22;11833;52.554;13.554;2024-03-02T12:27:52;15.20;93.80
23323;DHT22;11833;52.554;13.554;2024-03-02T12:30:20;15.30;93.80
23323;DHT22;11833;52.554;13.554;2024-03-02T12:32:47;15.40;95.60
23323;DHT22;11833;52.554;13.554;2024-03-02T12:35:13;15.60;95.00
23323;DHT22;11833;52.554;13.554;2024-03-02T12:37:48;15.80;91.80
23323;DHT22;11833;52.554;13.554;2024-03-02T12:40:16;16.00;95.00
23323;DHT22;11833;52.554;13.554;2024-03-02T12:42:44;16.10;92.90
23323;DHT22;11833;52.554;13.554;2024-03-02T12:45:12;16.30;93.80
23323;DHT22;11833;52.554;13.554;2024-03-02T12:47:40;16.30;90.60
23323;DHT22;11833;52.554;13.554;2024-03-02T12:50:07;16.30;91.30
23323;DHT22;11833;52.554;13.554;2024-03-02T12:52:33;16.50;92.70
23323;DHT22;11833;52.554;13.554;2024-03-02T12:55:01;16.50;92.70
23323;DHT22;11833;52.554;13.554;2024-03-02T12:57:29;16.50;89.40
23323;DHT22;11833;52.554;13.554;2024-03-02T13:00:05;16.40;89.10
23323;DHT22;11833;52.554;13.554;2024-03-02T13:02:35;16.60;93.50
23323;DHT22;11833;52.554;13.554;2024-03-02T13:05:02;16.90;92.60
23323;DHT22;11833;52.554;13.554;2024-03-02T13:07:28;16.80;86.30
23323;DHT22;11833;52.554;13.554;2024-03-02T13:09:55;17.00;83.10
23323;DHT22;11833;52.554;13.554;2024-03-02T13:12:23;17.60;86.10
23323;DHT22;11833;52.554;13.554;2024-03-02T13:14:52;18.20;83.90
23323;DHT22;11833;52.554;13.554;2024-03-02T13:17:19;18.30;78.30
23323;DHT22;11833;52.554;13.554;2024-03-02T13:19:55;17.90;80.90
23323;DHT22;11833;52.554;13.554;2024-03-02T13:22:22;17.80;76.50
23323;DHT22;11833;52.554;13.554;2024-03-02T13:24:49;17.00;77.10
23323;DHT22;11833;52.554;13.554;2024-03-02T13:27:15;17.10;80.20
23323;DHT22;11833;52.554;13.554;2024-03-02T13:29:42;17.00;82.10
23323;DHT22;11833;52.554;13.554;2024-03-02T13:32:08;17.10;77.80
23323;DHT22;11833;52.554;13.554;2024-03-02T13:34:35;17.60;88.20
23323;DHT22;11833;52.554;13.554;2024-03-02T13:37:03;18.20;81.80
23323;DHT22;11833;52.554;13.554;2024-03-02T13:39:30;18.40;75.60
23323;DHT22;11833;52.554;13.554;2024-03-02T13:41:57;19.00;72.70
23323;DHT22;11833;52.554;13.554;2024-03-02T13:44:30;19.30;74.70
23323;DHT22;11833;52.554;13.554;2024-03-02T13:46:56;19.60;70.00
23323;DHT22;11833;52.554;13.554;2024-03-02T13:49:23;19.80;71.50
23323;DHT22;11833;52.554;13.554;2024-03-02T13:51:49;20.00;69.10
23323;DHT22;11833;52.554;13.554;2024-03-02T13:54:15;19.80;67.00
23323;DHT22;11833;52.554;13.554;2024-03-02T13:56:41;20.00;70.40
23323;DHT22;11833;52.554;13.554;2024-03-02T13:59:07;20.00;64.10
23323;DHT22;11833;52.554;13.554;2024-03-02T14:01:33;20.00;68.50
23323;DHT22;11833;52.554;13.554;2024-03-02T14:03:59;20.00;69.20
23323;DHT22;11833;52.554;13.554;2024-03-02T14:06:25;20.10;69.40
23323;DHT22;11833;52.554;13.554;2024-03-02T14:08:53;20.10;64.00
23323;DHT22;11833;52.554;13.554;2024-03-02T14:11:19;20.40;65.30
23323;DHT22;11833;52.554;13.554;2024-03-02T14:13:45;20.50;65.30
23323;DHT22;11833;52.554;13.554;2024-03-02T14:16:19;20.30;70.90
23323;DHT22;11833;52.554;13.554;2024-03-02T14:18:44;19.60;65.40
23323;DHT22;11833;52.554;13.554;2024-03-02T14:21:10;19.90;66.90
23323;DHT22;11833;52.554;13.554;2024-03-02T14:23:36;19.90;69.30
23323;DHT22;11833;52.554;13.554;2024-03-02T14:26:02;19.60;69.00
23323;DHT22;11833;52.554;13.554;2024-03-02T14:28:28;19.60;65.00
23323;DHT22;11833;52.554;13.554;2024-03-02T14:30:54;19.80;69.50
23323;DHT22;11833;52.554;13.554;2024-03-02T14:33:20;19.70;62.80
23323;DHT22;11833;52.554;13.554;2024-03-02T14:35:46;19.20;66.80
23323;DHT22;11833;52.554;13.554;2024-03-02T14:38:12;19.00;66.30
23323;DHT22;11833;52.554;13.554;2024-03-02T14:40:38;18.10;65.50
23323;DHT22;11833;52.554;13.554;2024-03-02T14:43:04;17.80;68.80
23323;DHT22;11833;52.554;13.554;2024-03-02T14:45:30;18.00;70.00
23323;DHT22;11833;52.554;13.554;2024-03-02T14:47:56;18.20;67.10
23323;DHT22;11833;52.554;13.554;2024-03-02T14:50:28;18.70;67.90
23323;DHT22;11833;52.554;13.554;2024-03-02T14:52:54;18.70;67.00
23323;DHT22;11833;52.554;13.554;2024-03-02T14:55:23;18.60;65.90
23323;DHT22;11833;52.554;13.554;2024-03-02T14:57:49;18.50;70.30
23323;DHT22;11833;52.554;13.554;2024-03-02T15:00:15;17.90;73.00
23323;DHT22;11833;52.554;13.554;2024-03-02T15:02:41;17.40;70.80
23323;DHT22;11833;52.554;13.554;2024-03-02T15:05:07;17.20;76.80
23323;DHT22;11833;52.554;13.554;2024-03-02T15:07:33;16.70;73.90
23323;DHT22;11833;52.554;13.554;2024-03-02T15:09:59;16.40;77.40
23323;DHT22;11833;52.554;13.554;2024-03-02T15:12:26;16.10;80.30
23323;DHT22;11833;52.554;13.554;2024-03-02T15:14:52;16.00;80.50
23323;DHT22;11833;52.554;13.554;2024-03-02T15:17:18;16.00;81.80
23323;DHT22;11833;52.554;13.554;2024-03-02T15:19:44;15.90;81.50
23323;DHT22;11833;52.554;13.554;2024-03-02T15:22:11;15.70;82.20
23323;DHT22;11833;52.554;13.554;2024-03-02T15:24:37;15.50;82.70
23323;DHT22;11833;52.554;13.554;2024-03-02T15:27:04;15.30;82.60
23323;DHT22;11833;52.554;13.554;2024-03-02T15:29:34;15.20;84.20
23323;DHT22;11833;52.554;13.554;2024-03-02T15:32:01;15.10;84.20
23323;DHT22;11833;52.554;13.554;2024-03-02T15:34:31;14.90;85.00
23323;DHT22;11833;52.554;13.554;2024-03-02T15:36:58;14.80;85.20
23323;DHT22;11833;52.554;13.554;2024-03-02T15:39:24;14.60;85.90